createdAt,value
2022-12-19T00:00:02.694Z,84.11
2022-12-19T00:02:29.345Z,83.95
2022-12-19T00:04:55.906Z,84.26
2022-12-19T00:07:22.484Z,84.61
2022-12-19T00:09:48.979Z,83.59
2022-12-19T00:12:19.151Z,84.06
2022-12-19T00:14:47.274Z,83.82
2022-12-19T00:17:13.812Z,84.95
2022-12-19T00:19:40.301Z,84.72
2022-12-19T00:22:11.066Z,84.83
2022-12-19T00:24:37.808Z,84.77
2022-12-19T00:27:04.326Z,84.82
2022-12-19T00:29:31.099Z,84.88
2022-12-19T00:31:58.696Z,83.84
2022-12-19T00:34:25.333Z,83.69
2022-12-19T00:36:51.818Z,83.78
2022-12-19T00:39:18.329Z,83.65
2022-12-19T00:41:44.814Z,83.88
2022-12-19T00:44:14.152Z,83.98
2022-12-19T00:46:41.573Z,83.45
2022-12-19T00:49:08.159Z,83.84
2022-12-19T00:51:36.517Z,84.26
2022-12-19T00:54:07.292Z,84.30
2022-12-19T00:56:37.831Z,84.91
2022-12-19T00:59:05.810Z,84.92
2022-12-19T01:01:38.289Z,84.71
2022-12-19T01:06:53.494Z,84.17
2022-12-19T01:09:21.798Z,83.88
2022-12-19T01:12:06.950Z,83.94
2022-12-19T01:14:33.500Z,84.16
2022-12-19T01:17:00.096Z,84.01
2022-12-19T01:19:27.965Z,83.97
2022-12-19T01:21:54.554Z,83.84
2022-12-19T01:24:21.541Z,83.94
2022-12-19T01:26:48.056Z,83.59
2022-12-19T01:29:14.555Z,83.64
2022-12-19T01:31:41.141Z,83.07
2022-12-19T01:34:07.700Z,82.85
2022-12-19T01:36:38.592Z,82.90
2022-12-19T01:39:06.636Z,82.95
2022-12-19T01:41:37.499Z,83.02
2022-12-19T01:44:06.951Z,83.37
2022-12-19T01:46:37.027Z,83.47
2022-12-19T01:49:06.538Z,83.97
2022-12-19T01:51:48.022Z,83.34
2022-12-19T01:54:19.906Z,83.01
2022-12-19T01:56:51.633Z,82.95
2022-12-19T01:59:23.115Z,83.54
2022-12-19T02:01:59.041Z,83.34
2022-12-19T02:04:28.903Z,83.69
2022-12-19T02:07:15.342Z,84.15
2022-12-19T02:09:45.702Z,84.51
2022-12-19T02:12:12.917Z,84.57
2022-12-19T02:14:40.771Z,85.30
2022-12-19T02:17:46.480Z,85.00
2022-12-19T02:20:52.426Z,84.73
2022-12-19T02:23:27.950Z,84.67
2022-12-19T02:26:13.182Z,84.68
2022-12-19T02:29:17.505Z,84.76
2022-12-19T02:31:57.652Z,84.18
2022-12-19T02:34:44.626Z,85.37
2022-12-19T02:37:23.399Z,85.46
2022-12-19T02:40:03.813Z,85.42
2022-12-19T02:42:41.977Z,85.19
2022-12-19T02:45:11.737Z,85.12
2022-12-19T02:47:43.755Z,84.71
2022-12-19T02:50:11.930Z,84.83
2022-12-19T02:52:38.371Z,85.37
2022-12-19T02:55:11.061Z,85.17
2022-12-19T02:57:58.582Z,85.09
2022-12-19T03:00:28.587Z,85.54
2022-12-19T03:03:13.994Z,85.19
2022-12-19T03:06:03.697Z,85.68
2022-12-19T03:09:08.775Z,85.67
2022-12-19T03:11:38.945Z,86.30
2022-12-19T03:14:16.042Z,85.30
2022-12-19T03:16:42.649Z,85.73
2022-12-19T03:19:12.577Z,85.77
2022-12-19T03:21:43.459Z,86.26
2022-12-19T03:24:11.904Z,86.04
2022-12-19T03:26:47.107Z,86.07
2022-12-19T03:29:38.356Z,86.15
2022-12-19T03:32:09.385Z,85.77
2022-12-19T03:34:43.458Z,85.62
2022-12-19T03:37:15.299Z,86.84
2022-12-19T03:39:46.044Z,87.33
2022-12-19T03:42:33.991Z,86.69
2022-12-19T03:45:06.699Z,86.75
2022-12-19T03:47:44.590Z,86.70
2022-12-19T03:50:11.380Z,86.66
2022-12-19T03:52:50.344Z,86.33
2022-12-19T03:55:27.114Z,86.21
2022-12-19T03:57:59.250Z,87.11
2022-12-19T04:00:26.548Z,86.43
2022-12-19T04:02:55.864Z,86.40
2022-12-19T04:05:26.161Z,86.44
2022-12-19T04:07:57.429Z,86.20
2022-12-19T04:10:27.146Z,86.64
2022-12-19T04:13:08.607Z,86.16
2022-12-19T04:16:03.233Z,86.24
2022-12-19T04:18:34.132Z,85.99
2022-12-19T04:21:13.262Z,86.52
2022-12-19T04:23:47.643Z,86.83
2022-12-19T04:26:18.771Z,85.94
2022-12-19T04:28:56.407Z,86.20
2022-12-19T04:31:23.495Z,85.35
2022-12-19T04:33:50.165Z,85.85
2022-12-19T04:36:16.716Z,85.97
2022-12-19T04:38:43.369Z,85.79
2022-12-19T04:41:10.006Z,85.29
2022-12-19T04:43:36.527Z,84.97
2022-12-19T04:46:06.078Z,85.49
2022-12-19T04:48:36.964Z,86.51
2022-12-19T04:51:06.558Z,85.46
2022-12-19T04:53:35.827Z,85.32
2022-12-19T04:56:06.856Z,85.38
2022-12-19T04:58:34.118Z,85.12
2022-12-19T05:01:04.572Z,85.76
2022-12-19T05:03:36.051Z,85.20
2022-12-19T05:06:07.997Z,85.07
2022-12-19T05:08:35.422Z,85.43
2022-12-19T05:11:06.592Z,85.74
2022-12-19T05:13:36.118Z,84.96
2022-12-19T05:16:08.673Z,85.44
2022-12-19T05:18:36.927Z,85.61
2022-12-19T05:21:05.052Z,86.06
2022-12-19T05:23:35.293Z,85.80
2022-12-19T05:26:06.564Z,85.43
2022-12-19T05:28:34.765Z,84.55
2022-12-19T05:31:09.958Z,84.23
2022-12-19T05:33:37.003Z,84.40
2022-12-19T05:36:08.399Z,84.82
2022-12-19T05:38:35.942Z,84.85
2022-12-19T05:41:17.147Z,84.75
2022-12-19T05:43:45.366Z,85.05
2022-12-19T05:46:12.612Z,84.97
2022-12-19T05:48:39.230Z,85.09
2022-12-19T05:51:05.856Z,85.06
2022-12-19T05:53:36.347Z,84.20
2022-12-19T05:56:11.632Z,84.73
2022-12-19T05:58:39.800Z,85.25
2022-12-19T06:01:11.974Z,85.54
2022-12-19T06:03:38.744Z,85.09
2022-12-19T06:06:08.099Z,85.74
2022-12-19T06:08:35.469Z,85.58
2022-12-19T06:11:06.724Z,86.05
2022-12-19T06:13:36.943Z,86.51
2022-12-19T06:16:23.279Z,86.76
2022-12-19T06:18:50.576Z,85.59
2022-12-19T06:21:19.794Z,85.23
2022-12-19T06:23:46.935Z,85.32
2022-12-19T06:26:19.570Z,85.29
2022-12-19T06:28:51.589Z,85.05
2022-12-19T06:31:20.168Z,85.18
2022-12-19T06:33:46.829Z,85.16
2022-12-19T06:36:18.762Z,84.55
2022-12-19T06:38:45.335Z,84.85
2022-12-19T06:41:32.676Z,84.31
2022-12-19T06:44:04.129Z,85.15
2022-12-19T06:46:35.258Z,85.81
2022-12-19T06:49:05.217Z,85.44
2022-12-19T06:51:35.550Z,85.63
2022-12-19T06:54:03.843Z,85.87
2022-12-19T06:56:38.404Z,85.57
2022-12-19T06:59:06.260Z,85.56
2022-12-19T07:01:42.737Z,85.81
2022-12-19T07:04:12.417Z,85.42
2022-12-19T07:06:38.947Z,85.10
2022-12-19T07:09:06.359Z,84.96
2022-12-19T07:11:35.700Z,84.48
2022-12-19T07:14:05.006Z,84.95
2022-12-19T07:16:34.987Z,85.63
2022-12-19T07:19:05.398Z,86.36
2022-12-19T07:21:35.408Z,86.05
2022-12-19T07:24:04.543Z,86.23
2022-12-19T07:26:35.343Z,87.31
2022-12-19T07:29:05.103Z,87.59
2022-12-19T07:31:35.128Z,86.95
2022-12-19T07:34:04.379Z,87.01
2022-12-19T07:36:33.010Z,86.05
2022-12-19T07:39:00.008Z,86.16
2022-12-19T07:41:26.567Z,85.43
2022-12-19T07:43:53.127Z,86.21
2022-12-19T07:46:19.809Z,85.90
2022-12-19T07:48:46.448Z,85.35
2022-12-19T07:51:12.971Z,85.36
2022-12-19T07:53:39.503Z,85.58
2022-12-19T07:56:06.402Z,85.36
2022-12-19T07:58:36.376Z,85.02
2022-12-19T08:01:06.513Z,83.69
2022-12-19T08:03:34.405Z,83.78
2022-12-19T08:06:05.798Z,83.71
2022-12-19T08:08:33.850Z,83.91
2022-12-19T08:11:09.822Z,83.28
2022-12-19T08:13:40.903Z,82.16
2022-12-19T08:16:11.626Z,82.32
2022-12-19T08:18:38.247Z,81.47
2022-12-19T08:21:04.844Z,81.27
2022-12-19T08:23:33.388Z,81.37
2022-12-19T08:26:04.561Z,81.64
2022-12-19T08:28:33.731Z,81.72
2022-12-19T08:31:10.387Z,81.81
2022-12-19T08:33:37.446Z,81.29
2022-12-19T08:36:06.029Z,80.86
2022-12-19T08:38:36.252Z,80.33
2022-12-19T08:41:06.331Z,79.78
2022-12-19T08:43:35.931Z,79.32
2022-12-19T08:46:06.307Z,78.88
2022-12-19T08:48:36.709Z,78.90
2022-12-19T08:51:08.462Z,78.92
2022-12-19T08:53:38.646Z,78.68
2022-12-19T08:56:12.207Z,78.08
2022-12-19T08:58:39.031Z,78.75
2022-12-19T09:01:10.526Z,78.80
2022-12-19T09:03:49.633Z,77.86
2022-12-19T09:06:24.124Z,76.47
2022-12-19T09:08:50.666Z,76.13
2022-12-19T09:11:20.246Z,75.02
2022-12-19T09:13:48.078Z,73.41
2022-12-19T09:16:23.153Z,72.77
2022-12-19T09:18:52.763Z,72.43
2022-12-19T09:21:22.914Z,72.60
2022-12-19T09:23:52.384Z,71.73
2022-12-19T09:26:20.139Z,71.26
2022-12-19T09:28:47.938Z,70.40
2022-12-19T09:31:18.497Z,69.30
2022-12-19T09:33:45.629Z,69.20
2022-12-19T09:36:20.764Z,69.25
2022-12-19T09:38:47.643Z,69.71
2022-12-19T09:41:14.110Z,70.35
2022-12-19T09:44:18.109Z,69.42
2022-12-19T09:47:06.367Z,68.34
2022-12-19T09:49:43.712Z,67.17
2022-12-19T09:52:16.051Z,67.56
2022-12-19T09:54:55.705Z,68.19
2022-12-19T09:57:26.119Z,69.42
2022-12-19T10:00:15.117Z,69.00
2022-12-19T10:02:58.113Z,68.76
2022-12-19T10:06:17.870Z,68.43
2022-12-19T10:08:21.919Z,68.45
2022-12-19T10:12:40.315Z,67.73
2022-12-19T10:14:06.708Z,66.62
2022-12-19T10:16:36.277Z,65.52
2022-12-19T10:19:14.015Z,65.51
2022-12-19T10:22:22.217Z,64.75
2022-12-19T10:25:02.001Z,64.36
2022-12-19T10:27:59.856Z,64.39
2022-12-19T10:30:35.286Z,64.18
2022-12-19T10:33:20.237Z,63.83
2022-12-19T10:35:54.785Z,62.78
2022-12-19T10:38:51.326Z,62.60
2022-12-19T10:41:25.173Z,61.64
2022-12-19T10:44:05.764Z,61.46
2022-12-19T10:46:42.092Z,60.29
2022-12-19T10:49:19.190Z,60.44
2022-12-19T10:52:04.924Z,59.59
2022-12-19T10:54:39.967Z,60.09
2022-12-19T10:57:21.732Z,60.44
2022-12-19T10:59:58.574Z,60.57
2022-12-19T11:02:38.189Z,60.69
2022-12-19T11:05:29.198Z,60.14
2022-12-19T11:08:04.533Z,59.44
2022-12-19T11:11:55.162Z,58.25
2022-12-19T11:18:24.638Z,57.32
2022-12-19T11:21:52.361Z,56.51
2022-12-19T11:29:14.354Z,55.68
2022-12-19T11:29:38.525Z,55.74
2022-12-19T11:30:34.291Z,55.54
2022-12-19T11:30:36.761Z,55.57
2022-12-19T11:34:23.819Z,55.14
2022-12-19T11:37:21.453Z,54.51
2022-12-19T11:39:55.161Z,54.37
2022-12-19T11:42:21.992Z,53.62
2022-12-19T11:45:20.720Z,54.00
2022-12-19T11:48:03.358Z,54.63
2022-12-19T11:50:39.073Z,53.93
2022-12-19T11:53:18.622Z,54.03
2022-12-19T11:56:14.612Z,54.63
2022-12-19T11:59:10.389Z,54.75
2022-12-19T12:02:05.938Z,54.75
2022-12-19T12:04:47.706Z,55.94
2022-12-19T12:07:49.428Z,55.93
2022-12-19T12:13:13.641Z,55.85
2022-12-19T12:23:46.612Z,56.29
2022-12-19T12:31:09.104Z,56.76
2022-12-19T12:31:22.987Z,57.00
2022-12-19T12:31:28.730Z,56.31
2022-12-19T12:31:43.765Z,56.78
2022-12-19T12:31:52.224Z,56.14
2022-12-19T12:35:33.129Z,56.87
2022-12-19T12:38:14.563Z,57.26
2022-12-19T12:40:40.599Z,57.76
2022-12-19T12:43:22.469Z,57.80
2022-12-19T12:45:49.524Z,57.31
2022-12-19T12:48:34.886Z,57.74
2022-12-19T12:51:05.448Z,57.59
2022-12-19T12:53:37.531Z,57.04
2022-12-19T12:56:07.764Z,56.43
2022-12-19T12:58:52.012Z,57.15
2022-12-19T13:01:30.031Z,57.53
2022-12-19T13:04:16.714Z,57.32
2022-12-19T13:07:04.819Z,58.06
2022-12-19T13:09:36.857Z,58.60
2022-12-19T13:12:42.530Z,59.13
2022-12-19T13:15:44.501Z,58.53
2022-12-19T13:18:34.551Z,58.37
2022-12-19T13:21:09.660Z,58.65
2022-12-19T13:23:45.188Z,59.08
2022-12-19T13:26:44.764Z,58.86
2022-12-19T13:29:31.269Z,58.83
2022-12-19T13:32:09.430Z,58.75
2022-12-19T13:34:37.318Z,57.09
2022-12-19T13:40:02.080Z,56.14
2022-12-19T13:40:32.450Z,56.41
2022-12-19T13:43:25.674Z,56.24
2022-12-19T13:46:05.364Z,56.53
2022-12-19T13:48:44.265Z,57.01
2022-12-19T13:51:13.648Z,57.34
2022-12-19T13:53:42.562Z,57.12
2022-12-19T13:56:09.138Z,58.21
2022-12-19T13:58:45.375Z,58.88
2022-12-19T14:01:21.508Z,58.86
2022-12-19T14:03:50.481Z,59.13
2022-12-19T14:06:27.350Z,59.61
2022-12-19T14:11:26.263Z,59.87
2022-12-19T14:13:44.365Z,60.60
2022-12-19T14:15:12.872Z,60.86
2022-12-19T14:17:41.001Z,61.22
2022-12-19T14:22:05.841Z,61.72
2022-12-19T14:23:15.186Z,61.08
2022-12-19T14:28:17.163Z,61.90
2022-12-19T14:28:54.964Z,61.96
2022-12-19T14:31:24.199Z,62.30
2022-12-19T14:36:46.906Z,62.35
2022-12-19T14:39:25.924Z,62.57
2022-12-19T14:44:00.058Z,63.27
2022-12-19T14:54:04.572Z,63.68
2022-12-19T14:54:11.923Z,63.93
2022-12-19T14:54:21.602Z,63.93
2022-12-19T14:56:04.169Z,64.22
2022-12-19T14:58:07.871Z,63.97
2022-12-19T15:01:07.516Z,64.22
2022-12-19T15:03:25.834Z,64.59
2022-12-19T15:07:05.583Z,64.27
2022-12-19T15:10:58.805Z,64.96
2022-12-19T15:14:03.867Z,64.89
2022-12-19T15:15:15.823Z,64.84
2022-12-19T15:17:47.647Z,64.92
2022-12-19T15:20:14.271Z,65.63
2022-12-19T15:22:40.942Z,65.77
2022-12-19T15:25:13.545Z,66.20
2022-12-19T15:27:54.387Z,65.86
2022-12-19T15:30:22.343Z,65.75
2022-12-19T15:32:48.860Z,66.34
2022-12-19T15:35:18.054Z,66.10
2022-12-19T15:37:45.515Z,65.68
2022-12-19T15:40:17.774Z,66.13
2022-12-19T15:42:54.267Z,65.74
2022-12-19T15:45:20.913Z,65.88
2022-12-19T15:47:48.878Z,65.82
2022-12-19T15:50:21.825Z,65.91
2022-12-19T15:52:48.774Z,66.59
2022-12-19T15:55:17.376Z,66.43
2022-12-19T15:57:49.220Z,66.46
2022-12-19T16:00:18.550Z,66.42
2022-12-19T16:05:35.288Z,66.78
2022-12-19T16:08:01.872Z,67.23
2022-12-19T16:10:29.033Z,67.39
2022-12-19T16:12:58.027Z,67.97
2022-12-19T16:15:30.825Z,68.36
2022-12-19T16:17:59.064Z,68.63
2022-12-19T16:20:28.806Z,68.58
2022-12-19T16:22:55.629Z,68.71
2022-12-19T16:25:24.843Z,68.89
2022-12-19T16:27:58.328Z,68.83
2022-12-19T16:30:35.582Z,69.42
2022-12-19T16:33:02.113Z,69.36
2022-12-19T16:36:02.459Z,70.00
2022-12-19T16:38:17.642Z,69.57
2022-12-19T16:40:45.320Z,69.75
2022-12-19T16:43:25.519Z,69.84
2022-12-19T16:45:53.069Z,70.20
2022-12-19T16:48:24.174Z,70.07
2022-12-19T16:50:51.172Z,71.00
2022-12-19T16:53:18.694Z,70.74
2022-12-19T16:55:48.125Z,70.85
2022-12-19T16:58:19.128Z,70.83
2022-12-19T17:00:45.981Z,71.42
2022-12-19T17:03:28.388Z,71.84
2022-12-19T17:05:55.786Z,71.88
2022-12-19T17:08:23.100Z,71.69
2022-12-19T17:10:50.370Z,72.28
2022-12-19T17:13:21.084Z,71.81
2022-12-19T17:15:56.082Z,71.27
2022-12-19T17:18:38.047Z,71.96
2022-12-19T17:21:06.232Z,72.03
2022-12-19T17:23:33.522Z,72.43
2022-12-19T17:26:01.065Z,72.89
2022-12-19T17:28:29.007Z,72.46
2022-12-19T17:30:59.050Z,72.32
2022-12-19T17:33:37.020Z,72.54
2022-12-19T17:36:11.340Z,72.54
2022-12-19T17:38:37.889Z,72.81
2022-12-19T17:41:14.967Z,73.24
2022-12-19T17:43:41.481Z,73.08
2022-12-19T17:46:17.250Z,72.69
2022-12-19T17:48:45.297Z,73.36
2022-12-19T17:51:13.847Z,73.59
2022-12-19T17:53:40.374Z,73.40
2022-12-19T17:56:13.692Z,72.87
2022-12-19T17:58:42.560Z,73.71
2022-12-19T18:01:23.440Z,72.87
2022-12-19T18:03:52.985Z,73.44
2022-12-19T18:06:20.777Z,72.87
2022-12-19T18:08:47.718Z,72.57
2022-12-19T18:11:20.744Z,73.07
2022-12-19T18:13:47.843Z,73.58
2022-12-19T18:16:18.275Z,73.19
2022-12-19T18:18:45.739Z,73.05
2022-12-19T18:21:19.024Z,73.18
2022-12-19T18:23:46.415Z,74.18
2022-12-19T18:26:13.773Z,73.68
2022-12-19T18:28:41.404Z,73.33
2022-12-19T18:31:26.369Z,72.91
2022-12-19T18:34:02.040Z,73.50
2022-12-19T18:36:40.139Z,73.12
2022-12-19T18:39:21.343Z,72.94
2022-12-19T18:41:48.435Z,74.01
2022-12-19T18:44:14.961Z,73.97
2022-12-19T18:46:41.925Z,74.16
2022-12-19T18:49:13.862Z,73.87
2022-12-19T18:51:40.849Z,74.00
2022-12-19T18:54:20.253Z,73.70
2022-12-19T18:56:47.343Z,73.77
2022-12-19T18:59:14.324Z,73.91
2022-12-19T19:01:43.845Z,74.14
2022-12-19T19:04:13.125Z,73.93
2022-12-19T19:06:43.504Z,73.68
2022-12-19T19:09:18.296Z,74.77
2022-12-19T19:11:45.033Z,74.46
2022-12-19T19:14:11.718Z,74.00
2022-12-19T19:16:39.965Z,73.46
2022-12-19T19:19:10.608Z,72.86
2022-12-19T19:21:38.677Z,73.26
2022-12-19T19:24:15.745Z,73.67
2022-12-19T19:26:42.322Z,73.75
2022-12-19T19:29:09.769Z,73.18
2022-12-19T19:31:40.836Z,73.67
2022-12-19T19:34:27.168Z,73.14
2022-12-19T19:36:57.324Z,73.16
2022-12-19T19:39:23.911Z,73.93
2022-12-19T19:41:50.597Z,74.29
2022-12-19T19:44:17.237Z,74.54
2022-12-19T19:46:43.921Z,74.32
2022-12-19T19:49:10.703Z,74.73
2022-12-19T19:51:37.327Z,74.49
2022-12-19T19:54:06.628Z,74.78
2022-12-19T19:56:33.261Z,74.26
2022-12-19T19:59:00.734Z,74.30
2022-12-19T20:01:28.257Z,74.30
2022-12-19T20:03:55.058Z,74.63
2022-12-19T20:06:21.721Z,74.01
2022-12-19T20:08:48.299Z,74.10
2022-12-19T20:11:15.210Z,74.08
2022-12-19T20:13:41.765Z,77.47
2022-12-19T20:16:11.615Z,74.15
2022-12-19T20:18:40.243Z,74.29
2022-12-19T20:21:13.500Z,74.01
2022-12-19T20:23:41.989Z,73.54
2022-12-19T20:26:09.003Z,73.48
2022-12-19T20:28:42.340Z,72.73
2022-12-19T20:31:18.346Z,72.74
2022-12-19T20:33:46.244Z,72.63
2022-12-19T20:36:15.342Z,72.70
2022-12-19T20:38:41.933Z,72.99
2022-12-19T20:41:08.833Z,72.89
2022-12-19T20:43:38.499Z,72.97
2022-12-19T20:46:11.061Z,74.25
2022-12-19T20:48:38.477Z,73.76
2022-12-19T20:51:09.948Z,73.92
2022-12-19T20:53:41.647Z,74.33
2022-12-19T20:56:10.860Z,75.01
2022-12-19T20:58:38.269Z,74.90
2022-12-19T21:01:09.309Z,74.98
2022-12-19T21:03:39.770Z,75.00
2022-12-19T21:06:12.306Z,75.66
2022-12-19T21:08:39.731Z,76.11
2022-12-19T21:11:09.503Z,76.53
2022-12-19T21:13:41.113Z,76.52
2022-12-19T21:16:11.555Z,76.76
2022-12-19T21:18:40.335Z,76.31
2022-12-19T21:21:16.433Z,77.20
2022-12-19T21:23:43.322Z,76.76
2022-12-19T21:26:10.199Z,76.90
2022-12-19T21:28:40.051Z,77.48
2022-12-19T21:31:17.102Z,77.24
2022-12-19T21:33:44.695Z,77.48
2022-12-19T21:36:19.070Z,77.66
2022-12-19T21:38:50.302Z,77.64
2022-12-19T21:41:19.188Z,76.50
2022-12-19T21:43:48.838Z,77.06
2022-12-19T21:46:16.993Z,77.13
2022-12-19T21:48:48.495Z,76.32
2022-12-19T21:51:17.329Z,75.95
2022-12-19T21:53:44.065Z,77.15
2022-12-19T21:56:23.437Z,77.66
2022-12-19T21:58:58.824Z,78.11
2022-12-19T22:01:30.519Z,77.52
2022-12-19T22:04:03.047Z,77.76
2022-12-19T22:06:31.905Z,77.24
2022-12-19T22:09:00.301Z,77.25
2022-12-19T22:11:28.361Z,76.95
2022-12-19T22:13:55.156Z,76.58
2022-12-19T22:16:22.227Z,76.13
2022-12-19T22:18:51.457Z,75.31
2022-12-19T22:21:20.014Z,74.56
2022-12-19T22:23:46.938Z,75.02
2022-12-19T22:26:22.389Z,75.65
2022-12-19T22:28:51.394Z,74.81
2022-12-19T22:31:27.174Z,75.00
2022-12-19T22:33:57.169Z,75.27
2022-12-19T22:36:28.347Z,74.56
2022-12-19T22:38:56.986Z,74.08
2022-12-19T22:41:24.380Z,73.72
2022-12-19T22:43:51.868Z,73.62
2022-12-19T22:46:21.693Z,73.54
2022-12-19T22:48:50.272Z,73.96
2022-12-19T22:51:19.133Z,73.18
2022-12-19T22:53:47.105Z,73.52
2022-12-19T22:56:17.156Z,72.94
2022-12-19T22:58:46.584Z,71.93
2022-12-19T23:01:25.041Z,71.93
2022-12-19T23:03:53.668Z,72.11
2022-12-19T23:06:21.896Z,72.46
2022-12-19T23:08:49.317Z,72.27
2022-12-19T23:11:18.933Z,72.20
2022-12-19T23:13:47.886Z,71.96
2022-12-19T23:16:15.120Z,72.31
2022-12-19T23:18:45.139Z,72.08
2022-12-19T23:21:18.001Z,71.95
2022-12-19T23:23:46.698Z,72.53
2022-12-19T23:26:16.640Z,72.86
2022-12-19T23:28:50.098Z,73.43
2022-12-19T23:31:16.754Z,72.65
2022-12-19T23:33:44.385Z,72.65
2022-12-19T23:36:12.866Z,72.62
2022-12-19T23:38:39.488Z,72.96
2022-12-19T23:41:08.064Z,71.88
2022-12-19T23:43:36.341Z,72.46
2022-12-19T23:46:20.241Z,71.87
2022-12-19T23:48:46.885Z,71.43
2022-12-19T23:51:15.996Z,71.71
2022-12-19T23:53:46.792Z,71.31
2022-12-19T23:56:19.642Z,71.27
2022-12-19T23:58:46.705Z,71.50
